Eutaw, North Carolina
Current Conditions -  °F | °C
As of 2:58 AM on Saturday 25 Oct 2014 (Local Time) from KPOB Reporting Station
Clear Clear  
Wind Chill: 45°   Ceiling: Unl
Heat Index: 45°   Visibility: 10mi
Dew Point: 42°   Wind: 0mph
Humidity: 90%   Direction: NA
Pressure: 29.98"   Gusts: NA
Location:  35.0916°N, 79.0106°W
Report Text: KPOB 250658Z AUTO 00000KT 10SM CLR 07/06 A2998 RMK AO2 SLP155 T00720057
Loading
Personal Weather Stations






























Interactive Weather Map
Tropical Storm Tracking
New forecast layout! Learn more

10-Day Weather Forecast

Advertisements
Track Severe Weather on mobile